sensor_id;sensor_type;location;lat;lon;timestamp;temperature;humidity
20370;DHT22;10344;47.592;9.600;2022-11-13T00:02:25;7.90;99.90
20370;DHT22;10344;47.592;9.600;2022-11-13T00:04:56;7.90;99.90
20370;DHT22;10344;47.592;9.600;2022-11-13T00:07:33;7.80;99.90
20370;DHT22;10344;47.592;9.600;2022-11-13T00:11:08;7.80;99.90
20370;DHT22;10344;47.592;9.600;2022-11-13T00:13:42;7.80;99.90
20370;DHT22;10344;47.592;9.600;2022-11-13T00:16:18;7.70;99.90
20370;DHT22;10344;47.592;9.600;2022-11-13T00:18:57;7.70;99.90
20370;DHT22;10344;47.592;9.600;2022-11-13T00:21:26;7.80;99.90
20370;DHT22;10344;47.592;9.600;2022-11-13T00:24:15;7.70;99.90
20370;DHT22;10344;47.592;9.600;2022-11-13T00:26:45;7.70;99.90
20370;DHT22;10344;47.592;9.600;2022-11-13T00:29:13;7.70;99.90
20370;DHT22;10344;47.592;9.600;2022-11-13T00:31:44;7.70;99.90
20370;DHT22;10344;47.592;9.600;2022-11-13T00:34:39;7.60;99.90
20370;DHT22;10344;47.592;9.600;2022-11-13T00:37:27;7.60;99.90
20370;DHT22;10344;47.592;9.600;2022-11-13T00:40:15;7.60;99.90
20370;DHT22;10344;47.592;9.600;2022-11-13T00:42:41;7.60;99.90
20370;DHT22;10344;47.592;9.600;2022-11-13T00:45:30;7.50;99.90
20370;DHT22;10344;47.592;9.600;2022-11-13T00:47:56;7.50;99.90
20370;DHT22;10344;47.592;9.600;2022-11-13T00:50:25;7.50;99.90
20370;DHT22;10344;47.592;9.600;2022-11-13T00:53:10;7.40;99.90
20370;DHT22;10344;47.592;9.600;2022-11-13T00:55:39;7.40;99.90
20370;DHT22;10344;47.592;9.600;2022-11-13T00:58:13;7.40;99.90
20370;DHT22;10344;47.592;9.600;2022-11-13T01:00:43;7.40;99.90
20370;DHT22;10344;47.592;9.600;2022-11-13T01:03:21;7.40;99.90
20370;DHT22;10344;47.592;9.600;2022-11-13T01:05:58;7.40;99.90
20370;DHT22;10344;47.592;9.600;2022-11-13T01:08:26;7.40;99.90
20370;DHT22;10344;47.592;9.600;2022-11-13T01:11:19;7.30;99.90
20370;DHT22;10344;47.592;9.600;2022-11-13T01:13:58;7.30;99.90
20370;DHT22;10344;47.592;9.600;2022-11-13T01:16:37;7.30;99.90
20370;DHT22;10344;47.592;9.600;2022-11-13T01:19:17;7.30;99.90
20370;DHT22;10344;47.592;9.600;2022-11-13T01:21:52;7.30;99.90
20370;DHT22;10344;47.592;9.600;2022-11-13T01:24:24;7.20;99.90
20370;DHT22;10344;47.592;9.600;2022-11-13T01:26:54;7.30;99.90
20370;DHT22;10344;47.592;9.600;2022-11-13T01:29:27;7.20;99.90
20370;DHT22;10344;47.592;9.600;2022-11-13T01:32:17;7.30;99.90
20370;DHT22;10344;47.592;9.600;2022-11-13T01:34:52;7.30;99.90
20370;DHT22;10344;47.592;9.600;2022-11-13T01:37:42;7.20;99.90
20370;DHT22;10344;47.592;9.600;2022-11-13T01:40:15;7.30;99.90
20370;DHT22;10344;47.592;9.600;2022-11-13T01:42:46;7.20;99.90
20370;DHT22;10344;47.592;9.600;2022-11-13T01:48:15;7.20;99.90
20370;DHT22;10344;47.592;9.600;2022-11-13T01:50:41;7.30;99.90
20370;DHT22;10344;47.592;9.600;2022-11-13T01:53:07;7.30;99.90
20370;DHT22;10344;47.592;9.600;2022-11-13T01:55:35;7.20;99.90
20370;DHT22;10344;47.592;9.600;2022-11-13T01:58:02;7.20;99.90
20370;DHT22;10344;47.592;9.600;2022-11-13T02:00:32;7.10;99.90
20370;DHT22;10344;47.592;9.600;2022-11-13T02:03:04;7.10;99.90
20370;DHT22;10344;47.592;9.600;2022-11-13T02:05:33;7.10;99.90
20370;DHT22;10344;47.592;9.600;2022-11-13T02:07:59;7.10;99.90
20370;DHT22;10344;47.592;9.600;2022-11-13T02:10:26;7.10;99.90
20370;DHT22;10344;47.592;9.600;2022-11-13T02:12:52;7.10;99.90
20370;DHT22;10344;47.592;9.600;2022-11-13T02:15:20;7.10;99.90
20370;DHT22;10344;47.592;9.600;2022-11-13T02:17:54;7.10;99.90
20370;DHT22;10344;47.592;9.600;2022-11-13T02:20:36;7.10;99.90
20370;DHT22;10344;47.592;9.600;2022-11-13T02:25:46;7.00;99.90
20370;DHT22;10344;47.592;9.600;2022-11-13T02:28:14;7.00;99.90
20370;DHT22;10344;47.592;9.600;2022-11-13T02:30:41;6.90;99.90
20370;DHT22;10344;47.592;9.600;2022-11-13T02:33:38;6.80;99.90
20370;DHT22;10344;47.592;9.600;2022-11-13T02:36:05;6.80;99.90
20370;DHT22;10344;47.592;9.600;2022-11-13T02:38:35;6.80;99.90
20370;DHT22;10344;47.592;9.600;2022-11-13T02:41:01;6.80;99.90
20370;DHT22;10344;47.592;9.600;2022-11-13T02:43:27;6.80;99.90
20370;DHT22;10344;47.592;9.600;2022-11-13T02:45:53;6.80;99.90
20370;DHT22;10344;47.592;9.600;2022-11-13T02:48:23;6.70;99.90
20370;DHT22;10344;47.592;9.600;2022-11-13T02:50:49;6.80;99.90
20370;DHT22;10344;47.592;9.600;2022-11-13T02:53:17;6.70;99.90
20370;DHT22;10344;47.592;9.600;2022-11-13T02:55:45;6.70;99.90
20370;DHT22;10344;47.592;9.600;2022-11-13T02:58:11;6.60;99.90
20370;DHT22;10344;47.592;9.600;2022-11-13T03:00:37;6.50;99.90
20370;DHT22;10344;47.592;9.600;2022-11-13T03:03:07;6.50;99.90
20370;DHT22;10344;47.592;9.600;2022-11-13T03:05:35;6.50;99.90
20370;DHT22;10344;47.592;9.600;2022-11-13T03:08:05;6.50;99.90
20370;DHT22;10344;47.592;9.600;2022-11-13T03:10:33;6.40;99.90
20370;DHT22;10344;47.592;9.600;2022-11-13T03:13:01;6.40;99.90
20370;DHT22;10344;47.592;9.600;2022-11-13T03:15:33;6.50;99.90
20370;DHT22;10344;47.592;9.600;2022-11-13T03:18:07;6.40;99.90
20370;DHT22;10344;47.592;9.600;2022-11-13T03:20:35;6.40;99.90
20370;DHT22;10344;47.592;9.600;2022-11-13T03:23:02;6.40;99.90
20370;DHT22;10344;47.592;9.600;2022-11-13T03:25:36;6.30;99.90
20370;DHT22;10344;47.592;9.600;2022-11-13T03:28:01;6.30;99.90
20370;DHT22;10344;47.592;9.600;2022-11-13T03:30:28;6.30;99.90
20370;DHT22;10344;47.592;9.600;2022-11-13T03:32:54;6.30;99.90
20370;DHT22;10344;47.592;9.600;2022-11-13T03:35:22;6.30;99.90
20370;DHT22;10344;47.592;9.600;2022-11-13T03:37:48;6.30;99.90
20370;DHT22;10344;47.592;9.600;2022-11-13T03:40:16;6.30;99.90
20370;DHT22;10344;47.592;9.600;2022-11-13T03:42:44;6.30;99.90
20370;DHT22;10344;47.592;9.600;2022-11-13T03:45:10;6.40;99.90
20370;DHT22;10344;47.592;9.600;2022-11-13T03:47:35;6.30;99.90
20370;DHT22;10344;47.592;9.600;2022-11-13T03:50:01;6.30;99.90
20370;DHT22;10344;47.592;9.600;2022-11-13T03:52:29;6.30;99.90
20370;DHT22;10344;47.592;9.600;2022-11-13T03:54:55;6.30;99.90
20370;DHT22;10344;47.592;9.600;2022-11-13T03:57:21;6.30;99.90
20370;DHT22;10344;47.592;9.600;2022-11-13T03:59:46;6.30;99.90
20370;DHT22;10344;47.592;9.600;2022-11-13T04:02:12;6.30;99.90
20370;DHT22;10344;47.592;9.600;2022-11-13T04:04:40;6.30;99.90
20370;DHT22;10344;47.592;9.600;2022-11-13T04:07:06;6.30;99.90
20370;DHT22;10344;47.592;9.600;2022-11-13T04:09:34;6.30;99.90
20370;DHT22;10344;47.592;9.600;2022-11-13T04:12:02;6.20;99.90
20370;DHT22;10344;47.592;9.600;2022-11-13T04:14:28;6.20;99.90
20370;DHT22;10344;47.592;9.600;2022-11-13T04:16:58;6.20;99.90
20370;DHT22;10344;47.592;9.600;2022-11-13T04:19:24;6.10;99.90
20370;DHT22;10344;47.592;9.600;2022-11-13T04:21:51;6.10;99.90
20370;DHT22;10344;47.592;9.600;2022-11-13T04:24:17;6.10;99.90
20370;DHT22;10344;47.592;9.600;2022-11-13T04:26:43;6.00;99.90
20370;DHT22;10344;47.592;9.600;2022-11-13T04:29:10;6.10;99.90
20370;DHT22;10344;47.592;9.600;2022-11-13T04:31:36;6.00;99.90
20370;DHT22;10344;47.592;9.600;2022-11-13T04:34:01;6.00;99.90
20370;DHT22;10344;47.592;9.600;2022-11-13T04:36:29;6.00;99.90
20370;DHT22;10344;47.592;9.600;2022-11-13T04:38:57;6.10;99.90
20370;DHT22;10344;47.592;9.600;2022-11-13T04:41:25;6.10;99.90
20370;DHT22;10344;47.592;9.600;2022-11-13T04:44:11;6.00;99.90
20370;DHT22;10344;47.592;9.600;2022-11-13T04:46:39;6.10;99.90
20370;DHT22;10344;47.592;9.600;2022-11-13T04:49:05;6.10;99.90
20370;DHT22;10344;47.592;9.600;2022-11-13T04:51:33;6.10;99.90
20370;DHT22;10344;47.592;9.600;2022-11-13T04:53:59;6.10;99.90
20370;DHT22;10344;47.592;9.600;2022-11-13T04:56:24;6.10;99.90
20370;DHT22;10344;47.592;9.600;2022-11-13T04:58:50;6.10;99.90
20370;DHT22;10344;47.592;9.600;2022-11-13T05:01:21;6.10;99.90
20370;DHT22;10344;47.592;9.600;2022-11-13T05:03:53;6.00;99.90
20370;DHT22;10344;47.592;9.600;2022-11-13T05:06:23;6.00;99.90
20370;DHT22;10344;47.592;9.600;2022-11-13T05:08:49;6.00;99.90
20370;DHT22;10344;47.592;9.600;2022-11-13T05:11:17;6.00;99.90
20370;DHT22;10344;47.592;9.600;2022-11-13T05:13:45;6.00;99.90
20370;DHT22;10344;47.592;9.600;2022-11-13T05:16:12;6.00;99.90
20370;DHT22;10344;47.592;9.600;2022-11-13T05:18:38;6.00;99.90
20370;DHT22;10344;47.592;9.600;2022-11-13T05:21:10;6.10;99.90
20370;DHT22;10344;47.592;9.600;2022-11-13T05:23:36;6.10;99.90
20370;DHT22;10344;47.592;9.600;2022-11-13T05:26:10;6.20;99.90
20370;DHT22;10344;47.592;9.600;2022-11-13T05:28:38;6.20;99.90
20370;DHT22;10344;47.592;9.600;2022-11-13T05:31:11;6.20;99.90
20370;DHT22;10344;47.592;9.600;2022-11-13T05:33:41;6.20;99.90
20370;DHT22;10344;47.592;9.600;2022-11-13T05:36:08;6.20;99.90
20370;DHT22;10344;47.592;9.600;2022-11-13T05:38:35;6.20;99.90
20370;DHT22;10344;47.592;9.600;2022-11-13T05:41:08;6.10;99.90
20370;DHT22;10344;47.592;9.600;2022-11-13T05:43:37;6.10;99.90
20370;DHT22;10344;47.592;9.600;2022-11-13T05:48:39;6.10;99.90
20370;DHT22;10344;47.592;9.600;2022-11-13T05:51:09;6.20;99.90
20370;DHT22;10344;47.592;9.600;2022-11-13T05:53:38;6.10;99.90
20370;DHT22;10344;47.592;9.600;2022-11-13T05:56:09;6.10;99.90
20370;DHT22;10344;47.592;9.600;2022-11-13T05:58:38;6.10;99.90
20370;DHT22;10344;47.592;9.600;2022-11-13T06:01:22;6.20;99.90
20370;DHT22;10344;47.592;9.600;2022-11-13T06:03:51;6.20;99.90
20370;DHT22;10344;47.592;9.600;2022-11-13T06:06:18;6.10;99.90
20370;DHT22;10344;47.592;9.600;2022-11-13T06:08:47;6.10;99.90
20370;DHT22;10344;47.592;9.600;2022-11-13T06:11:18;6.00;99.90
20370;DHT22;10344;47.592;9.600;2022-11-13T06:13:45;6.10;99.90
20370;DHT22;10344;47.592;9.600;2022-11-13T06:16:19;6.10;99.90
20370;DHT22;10344;47.592;9.600;2022-11-13T06:18:54;6.10;99.90
20370;DHT22;10344;47.592;9.600;2022-11-13T06:21:22;6.00;99.90
20370;DHT22;10344;47.592;9.600;2022-11-13T06:23:48;6.00;99.90
20370;DHT22;10344;47.592;9.600;2022-11-13T06:26:17;6.00;99.90
20370;DHT22;10344;47.592;9.600;2022-11-13T06:28:45;6.00;99.90
20370;DHT22;10344;47.592;9.600;2022-11-13T06:31:19;6.00;99.90
20370;DHT22;10344;47.592;9.600;2022-11-13T06:33:45;6.00;99.90
20370;DHT22;10344;47.592;9.600;2022-11-13T06:36:23;6.00;99.90
20370;DHT22;10344;47.592;9.600;2022-11-13T06:38:49;5.90;99.90
20370;DHT22;10344;47.592;9.600;2022-11-13T06:41:18;5.90;99.90
20370;DHT22;10344;47.592;9.600;2022-11-13T06:43:47;5.90;99.90
20370;DHT22;10344;47.592;9.600;2022-11-13T06:46:26;5.90;99.90
20370;DHT22;10344;47.592;9.600;2022-11-13T06:48:55;5.90;99.90
20370;DHT22;10344;47.592;9.600;2022-11-13T06:51:25;5.90;99.90
20370;DHT22;10344;47.592;9.600;2022-11-13T06:53:52;5.90;99.90
20370;DHT22;10344;47.592;9.600;2022-11-13T06:56:20;6.00;99.90
20370;DHT22;10344;47.592;9.600;2022-11-13T06:58:51;6.00;99.90
20370;DHT22;10344;47.592;9.600;2022-11-13T07:01:22;6.00;99.90
20370;DHT22;10344;47.592;9.600;2022-11-13T07:03:47;6.00;99.90
20370;DHT22;10344;47.592;9.600;2022-11-13T07:06:17;6.00;99.90
20370;DHT22;10344;47.592;9.600;2022-11-13T07:08:44;5.90;99.90
20370;DHT22;10344;47.592;9.600;2022-11-13T07:11:17;5.90;99.90
20370;DHT22;10344;47.592;9.600;2022-11-13T07:14:09;5.90;99.90
20370;DHT22;10344;47.592;9.600;2022-11-13T07:16:59;5.90;99.90
20370;DHT22;10344;47.592;9.600;2022-11-13T07:19:25;6.00;99.90
20370;DHT22;10344;47.592;9.600;2022-11-13T07:21:54;6.00;99.90
20370;DHT22;10344;47.592;9.600;2022-11-13T07:24:20;6.00;99.90
20370;DHT22;10344;47.592;9.600;2022-11-13T07:26:46;6.10;99.90
20370;DHT22;10344;47.592;9.600;2022-11-13T07:29:13;6.10;99.90
20370;DHT22;10344;47.592;9.600;2022-11-13T07:31:41;6.10;99.90
20370;DHT22;10344;47.592;9.600;2022-11-13T07:34:09;6.10;99.90
20370;DHT22;10344;47.592;9.600;2022-11-13T07:36:34;6.10;99.90
20370;DHT22;10344;47.592;9.600;2022-11-13T07:39:00;6.20;99.90
20370;DHT22;10344;47.592;9.600;2022-11-13T07:41:28;6.30;99.90
20370;DHT22;10344;47.592;9.600;2022-11-13T07:43:53;6.30;99.90
20370;DHT22;10344;47.592;9.600;2022-11-13T07:46:19;6.30;99.90
20370;DHT22;10344;47.592;9.600;2022-11-13T07:48:48;6.20;99.90
20370;DHT22;10344;47.592;9.600;2022-11-13T07:51:16;6.20;99.90
20370;DHT22;10344;47.592;9.600;2022-11-13T07:53:44;6.10;99.90
20370;DHT22;10344;47.592;9.600;2022-11-13T07:56:12;6.10;99.90
20370;DHT22;10344;47.592;9.600;2022-11-13T07:58:40;6.10;99.90
20370;DHT22;10344;47.592;9.600;2022-11-13T08:01:10;6.00;99.90
20370;DHT22;10344;47.592;9.600;2022-11-13T08:03:36;6.10;99.90
20370;DHT22;10344;47.592;9.600;2022-11-13T08:06:03;6.10;99.90
20370;DHT22;10344;47.592;9.600;2022-11-13T08:08:36;6.10;99.90
20370;DHT22;10344;47.592;9.600;2022-11-13T08:11:06;6.10;99.90
20370;DHT22;10344;47.592;9.600;2022-11-13T08:13:46;6.10;99.90
20370;DHT22;10344;47.592;9.600;2022-11-13T08:16:12;6.00;99.90
20370;DHT22;10344;47.592;9.600;2022-11-13T08:18:45;5.90;99.90
20370;DHT22;10344;47.592;9.600;2022-11-13T08:21:17;5.90;99.90
20370;DHT22;10344;47.592;9.600;2022-11-13T08:24:16;5.90;99.90
20370;DHT22;10344;47.592;9.600;2022-11-13T08:26:42;5.90;99.90
20370;DHT22;10344;47.592;9.600;2022-11-13T08:29:13;6.00;99.90
20370;DHT22;10344;47.592;9.600;2022-11-13T08:31:43;6.00;99.90
20370;DHT22;10344;47.592;9.600;2022-11-13T08:34:10;6.00;99.90
20370;DHT22;10344;47.592;9.600;2022-11-13T08:36:37;6.10;99.90
20370;DHT22;10344;47.592;9.600;2022-11-13T08:39:04;6.10;99.90
20370;DHT22;10344;47.592;9.600;2022-11-13T08:41:42;6.20;99.90
20370;DHT22;10344;47.592;9.600;2022-11-13T08:44:13;6.30;99.90
20370;DHT22;10344;47.592;9.600;2022-11-13T08:46:50;6.40;99.90
20370;DHT22;10344;47.592;9.600;2022-11-13T08:49:30;6.40;99.90
20370;DHT22;10344;47.592;9.600;2022-11-13T08:52:00;6.50;99.90
20370;DHT22;10344;47.592;9.600;2022-11-13T08:54:40;6.60;99.90
20370;DHT22;10344;47.592;9.600;2022-11-13T08:57:07;6.60;99.90
20370;DHT22;10344;47.592;9.600;2022-11-13T08:59:36;6.70;99.90
20370;DHT22;10344;47.592;9.600;2022-11-13T09:02:02;6.70;99.90
20370;DHT22;10344;47.592;9.600;2022-11-13T09:04:45;6.80;99.90
20370;DHT22;10344;47.592;9.600;2022-11-13T09:07:16;6.80;99.90
20370;DHT22;10344;47.592;9.600;2022-11-13T09:10:04;6.80;99.90
20370;DHT22;10344;47.592;9.600;2022-11-13T09:12:33;6.80;99.90
20370;DHT22;10344;47.592;9.600;2022-11-13T09:15:09;6.80;99.90
20370;DHT22;10344;47.592;9.600;2022-11-13T09:17:36;6.70;99.90
20370;DHT22;10344;47.592;9.600;2022-11-13T09:20:07;6.70;99.90
20370;DHT22;10344;47.592;9.600;2022-11-13T09:22:34;6.70;99.90
20370;DHT22;10344;47.592;9.600;2022-11-13T09:25:07;6.70;99.90
20370;DHT22;10344;47.592;9.600;2022-11-13T09:27:34;6.80;99.90
20370;DHT22;10344;47.592;9.600;2022-11-13T09:30:02;6.90;99.90
20370;DHT22;10344;47.592;9.600;2022-11-13T09:32:28;6.90;99.90
20370;DHT22;10344;47.592;9.600;2022-11-13T09:34:56;7.00;99.90
20370;DHT22;10344;47.592;9.600;2022-11-13T09:37:26;7.10;99.90
20370;DHT22;10344;47.592;9.600;2022-11-13T09:40:04;7.10;99.90
20370;DHT22;10344;47.592;9.600;2022-11-13T09:42:37;7.10;99.90
20370;DHT22;10344;47.592;9.600;2022-11-13T09:45:09;7.10;99.90
20370;DHT22;10344;47.592;9.600;2022-11-13T09:47:43;7.20;99.90
20370;DHT22;10344;47.592;9.600;2022-11-13T09:50:24;7.20;99.90
20370;DHT22;10344;47.592;9.600;2022-11-13T09:52:55;7.10;99.90
20370;DHT22;10344;47.592;9.600;2022-11-13T09:55:32;7.10;99.90
20370;DHT22;10344;47.592;9.600;2022-11-13T09:58:18;7.10;99.90
20370;DHT22;10344;47.592;9.600;2022-11-13T10:00:47;6.90;99.90
20370;DHT22;10344;47.592;9.600;2022-11-13T10:03:38;6.90;99.90
20370;DHT22;10344;47.592;9.600;2022-11-13T10:06:32;6.90;99.90
20370;DHT22;10344;47.592;9.600;2022-11-13T10:12:21;7.00;99.90
20370;DHT22;10344;47.592;9.600;2022-11-13T10:15:18;7.10;99.90
20370;DHT22;10344;47.592;9.600;2022-11-13T10:18:12;7.10;99.90
20370;DHT22;10344;47.592;9.600;2022-11-13T10:20:48;7.10;99.90
20370;DHT22;10344;47.592;9.600;2022-11-13T10:23:43;7.10;99.90
20370;DHT22;10344;47.592;9.600;2022-11-13T10:26:17;7.10;99.90
20370;DHT22;10344;47.592;9.600;2022-11-13T10:31:57;7.10;99.90
20370;DHT22;10344;47.592;9.600;2022-11-13T10:34:27;7.20;99.90
20370;DHT22;10344;47.592;9.600;2022-11-13T10:40:29;7.10;99.90
20370;DHT22;10344;47.592;9.600;2022-11-13T10:43:24;7.00;99.90
20370;DHT22;10344;47.592;9.600;2022-11-13T10:46:03;6.80;99.90
20370;DHT22;10344;47.592;9.600;2022-11-13T10:48:35;6.70;99.90
20370;DHT22;10344;47.592;9.600;2022-11-13T10:53:59;6.70;99.90
20370;DHT22;10344;47.592;9.600;2022-11-13T10:56:30;6.60;99.90
20370;DHT22;10344;47.592;9.600;2022-11-13T10:59:21;6.50;99.90
20370;DHT22;10344;47.592;9.600;2022-11-13T11:05:00;6.40;99.90
20370;DHT22;10344;47.592;9.600;2022-11-13T11:07:38;6.50;99.90
20370;DHT22;10344;47.592;9.600;2022-11-13T11:10:21;6.60;99.90
20370;DHT22;10344;47.592;9.600;2022-11-13T11:13:09;6.70;99.90
20370;DHT22;10344;47.592;9.600;2022-11-13T11:15:55;6.80;99.90
20370;DHT22;10344;47.592;9.600;2022-11-13T11:18:59;6.60;99.90
20370;DHT22;10344;47.592;9.600;2022-11-13T11:22:00;6.80;99.90
20370;DHT22;10344;47.592;9.600;2022-11-13T11:24:42;6.80;99.90
20370;DHT22;10344;47.592;9.600;2022-11-13T11:27:31;6.70;99.90
20370;DHT22;10344;47.592;9.600;2022-11-13T11:30:28;6.60;99.90
20370;DHT22;10344;47.592;9.600;2022-11-13T11:33:59;6.70;99.90
20370;DHT22;10344;47.592;9.600;2022-11-13T11:37:18;6.60;99.90
20370;DHT22;10344;47.592;9.600;2022-11-13T11:40:13;6.60;99.90
20370;DHT22;10344;47.592;9.600;2022-11-13T11:43:09;6.60;99.90
20370;DHT22;10344;47.592;9.600;2022-11-13T11:45:47;6.60;99.90
20370;DHT22;10344;47.592;9.600;2022-11-13T11:48:26;6.60;99.90
20370;DHT22;10344;47.592;9.600;2022-11-13T11:58:04;6.80;99.90
20370;DHT22;10344;47.592;9.600;2022-11-13T12:00:32;6.70;99.90
20370;DHT22;10344;47.592;9.600;2022-11-13T12:09:28;6.80;99.90
20370;DHT22;10344;47.592;9.600;2022-11-13T12:15:09;6.80;99.90
20370;DHT22;10344;47.592;9.600;2022-11-13T12:21:21;6.90;99.90
20370;DHT22;10344;47.592;9.600;2022-11-13T12:27:31;6.90;99.90
20370;DHT22;10344;47.592;9.600;2022-11-13T12:33:01;6.80;99.90
20370;DHT22;10344;47.592;9.600;2022-11-13T12:36:03;6.90;99.90
20370;DHT22;10344;47.592;9.600;2022-11-13T12:48:41;6.80;99.90
20370;DHT22;10344;47.592;9.600;2022-11-13T12:51:11;6.80;99.90
20370;DHT22;10344;47.592;9.600;2022-11-13T12:53:57;6.80;99.90
20370;DHT22;10344;47.592;9.600;2022-11-13T12:57:27;6.90;99.90
20370;DHT22;10344;47.592;9.600;2022-11-13T13:00:09;6.80;99.90
20370;DHT22;10344;47.592;9.600;2022-11-13T13:06:22;6.90;99.90
20370;DHT22;10344;47.592;9.600;2022-11-13T13:09:16;6.80;99.90
20370;DHT22;10344;47.592;9.600;2022-11-13T13:15:21;6.90;99.90
20370;DHT22;10344;47.592;9.600;2022-11-13T13:18:24;6.90;99.90
20370;DHT22;10344;47.592;9.600;2022-11-13T13:21:15;6.90;99.90
20370;DHT22;10344;47.592;9.600;2022-11-13T13:27:00;6.80;99.90
20370;DHT22;10344;47.592;9.600;2022-11-13T13:29:32;6.80;99.90
20370;DHT22;10344;47.592;9.600;2022-11-13T13:32:45;6.80;99.90
20370;DHT22;10344;47.592;9.600;2022-11-13T13:39:14;6.90;99.90
20370;DHT22;10344;47.592;9.600;2022-11-13T13:48:07;7.00;99.90
20370;DHT22;10344;47.592;9.600;2022-11-13T13:50:45;7.10;99.90
20370;DHT22;10344;47.592;9.600;2022-11-13T13:53:30;7.00;99.90
20370;DHT22;10344;47.592;9.600;2022-11-13T13:56:12;6.90;99.90
20370;DHT22;10344;47.592;9.600;2022-11-13T13:59:04;6.90;99.90
20370;DHT22;10344;47.592;9.600;2022-11-13T14:01:34;7.00;99.90
20370;DHT22;10344;47.592;9.600;2022-11-13T14:04:21;6.90;99.90
20370;DHT22;10344;47.592;9.600;2022-11-13T14:07:25;7.00;99.90
20370;DHT22;10344;47.592;9.600;2022-11-13T14:10:17;6.90;99.90
20370;DHT22;10344;47.592;9.600;2022-11-13T14:13:31;6.90;99.90
20370;DHT22;10344;47.592;9.600;2022-11-13T14:16:18;6.90;99.90
20370;DHT22;10344;47.592;9.600;2022-11-13T14:18:45;6.90;99.90
20370;DHT22;10344;47.592;9.600;2022-11-13T14:21:19;6.90;99.90
20370;DHT22;10344;47.592;9.600;2022-11-13T14:24:01;6.90;99.90
20370;DHT22;10344;47.592;9.600;2022-11-13T14:26:28;6.90;99.90
20370;DHT22;10344;47.592;9.600;2022-11-13T14:29:04;6.80;99.90
20370;DHT22;10344;47.592;9.600;2022-11-13T14:31:51;6.80;99.90
20370;DHT22;10344;47.592;9.600;2022-11-13T14:34:25;6.80;99.90
20370;DHT22;10344;47.592;9.600;2022-11-13T14:37:47;6.70;99.90
20370;DHT22;10344;47.592;9.600;2022-11-13T14:40:33;6.80;99.90
20370;DHT22;10344;47.592;9.600;2022-11-13T14:43:33;6.80;99.90
20370;DHT22;10344;47.592;9.600;2022-11-13T14:48:57;6.80;99.90
20370;DHT22;10344;47.592;9.600;2022-11-13T14:51:54;6.70;99.90
20370;DHT22;10344;47.592;9.600;2022-11-13T14:54:36;6.70;99.90
20370;DHT22;10344;47.592;9.600;2022-11-13T14:57:12;6.80;99.90
20370;DHT22;10344;47.592;9.600;2022-11-13T14:59:41;6.70;99.90
20370;DHT22;10344;47.592;9.600;2022-11-13T15:02:22;6.60;99.90
20370;DHT22;10344;47.592;9.600;2022-11-13T15:05:12;6.70;99.90
20370;DHT22;10344;47.592;9.600;2022-11-13T15:08:02;6.60;99.90
20370;DHT22;10344;47.592;9.600;2022-11-13T15:10:35;6.50;99.90
20370;DHT22;10344;47.592;9.600;2022-11-13T15:13:15;6.50;99.90
20370;DHT22;10344;47.592;9.600;2022-11-13T15:16:02;6.40;99.90
20370;DHT22;10344;47.592;9.600;2022-11-13T15:18:36;6.40;99.90
20370;DHT22;10344;47.592;9.600;2022-11-13T15:21:12;6.40;99.90
20370;DHT22;10344;47.592;9.600;2022-11-13T15:24:01;6.40;99.90
20370;DHT22;10344;47.592;9.600;2022-11-13T15:26:37;6.40;99.90
20370;DHT22;10344;47.592;9.600;2022-11-13T15:29:24;6.40;99.90
20370;DHT22;10344;47.592;9.600;2022-11-13T15:32:15;6.40;99.90
20370;DHT22;10344;47.592;9.600;2022-11-13T15:34:56;6.40;99.90
20370;DHT22;10344;47.592;9.600;2022-11-13T15:37:39;6.40;99.90
20370;DHT22;10344;47.592;9.600;2022-11-13T15:40:38;6.40;99.90
20370;DHT22;10344;47.592;9.600;2022-11-13T15:43:11;6.40;99.90
20370;DHT22;10344;47.592;9.600;2022-11-13T15:45:58;6.50;99.90
20370;DHT22;10344;47.592;9.600;2022-11-13T15:48:49;6.30;99.90
20370;DHT22;10344;47.592;9.600;2022-11-13T15:51:40;6.30;99.90
20370;DHT22;10344;47.592;9.600;2022-11-13T15:54:32;6.30;99.90
20370;DHT22;10344;47.592;9.600;2022-11-13T15:57:27;6.30;99.90
20370;DHT22;10344;47.592;9.600;2022-11-13T16:00:02;6.30;99.90
20370;DHT22;10344;47.592;9.600;2022-11-13T16:02:43;6.30;99.90
20370;DHT22;10344;47.592;9.600;2022-11-13T16:05:35;6.30;99.90
20370;DHT22;10344;47.592;9.600;2022-11-13T16:08:31;6.30;99.90
20370;DHT22;10344;47.592;9.600;2022-11-13T16:11:05;6.20;99.90
20370;DHT22;10344;47.592;9.600;2022-11-13T16:13:40;6.30;99.90
20370;DHT22;10344;47.592;9.600;2022-11-13T16:16:22;6.30;99.90
20370;DHT22;10344;47.592;9.600;2022-11-13T16:18:57;6.20;99.90
20370;DHT22;10344;47.592;9.600;2022-11-13T16:21:30;6.30;99.90
20370;DHT22;10344;47.592;9.600;2022-11-13T16:24:21;6.20;99.90
20370;DHT22;10344;47.592;9.600;2022-11-13T16:27:30;6.30;99.90
20370;DHT22;10344;47.592;9.600;2022-11-13T16:30:34;6.30;99.90
20370;DHT22;10344;47.592;9.600;2022-11-13T16:33:24;6.30;99.90
20370;DHT22;10344;47.592;9.600;2022-11-13T16:35:51;6.30;99.90
20370;DHT22;10344;47.592;9.600;2022-11-13T16:38:40;6.30;99.90
20370;DHT22;10344;47.592;9.600;2022-11-13T16:41:14;6.30;99.90
20370;DHT22;10344;47.592;9.600;2022-11-13T16:43:45;6.30;99.90
20370;DHT22;10344;47.592;9.600;2022-11-13T16:46:29;6.30;99.90
20370;DHT22;10344;47.592;9.600;2022-11-13T16:48:56;6.20;99.90
20370;DHT22;10344;47.592;9.600;2022-11-13T16:51:31;6.20;99.90
20370;DHT22;10344;47.592;9.600;2022-11-13T16:54:19;6.20;99.90
20370;DHT22;10344;47.592;9.600;2022-11-13T16:57:10;6.20;99.90
20370;DHT22;10344;47.592;9.600;2022-11-13T16:59:41;6.30;99.90
20370;DHT22;10344;47.592;9.600;2022-11-13T17:17:41;6.20;99.90
20370;DHT22;10344;47.592;9.600;2022-11-13T18:20:38;5.90;99.90
20370;DHT22;10344;47.592;9.600;2022-11-13T18:23:11;6.00;99.90
20370;DHT22;10344;47.592;9.600;2022-11-13T18:26:08;6.00;99.90
20370;DHT22;10344;47.592;9.600;2022-11-13T18:28:53;5.90;99.90
20370;DHT22;10344;47.592;9.600;2022-11-13T18:31:31;5.80;99.90
20370;DHT22;10344;47.592;9.600;2022-11-13T18:34:00;5.80;99.90
20370;DHT22;10344;47.592;9.600;2022-11-13T18:36:28;5.80;99.90
20370;DHT22;10344;47.592;9.600;2022-11-13T19:15:27;6.00;99.90
20370;DHT22;10344;47.592;9.600;2022-11-13T19:18:06;6.00;99.90
20370;DHT22;10344;47.592;9.600;2022-11-13T19:20:39;6.00;99.90
20370;DHT22;10344;47.592;9.600;2022-11-13T19:23:32;6.00;99.90
20370;DHT22;10344;47.592;9.600;2022-11-13T19:25:58;6.10;99.90
20370;DHT22;10344;47.592;9.600;2022-11-13T19:28:36;6.00;99.90
20370;DHT22;10344;47.592;9.600;2022-11-13T19:31:12;6.00;99.90
20370;DHT22;10344;47.592;9.600;2022-11-13T19:33:40;6.00;99.90
20370;DHT22;10344;47.592;9.600;2022-11-13T19:36:16;6.10;99.90
20370;DHT22;10344;47.592;9.600;2022-11-13T19:39:09;6.00;99.90
20370;DHT22;10344;47.592;9.600;2022-11-13T19:41:39;6.10;99.90
20370;DHT22;10344;47.592;9.600;2022-11-13T19:44:16;6.10;99.90
20370;DHT22;10344;47.592;9.600;2022-11-13T19:46:44;6.20;99.90
20370;DHT22;10344;47.592;9.600;2022-11-13T19:49:24;6.10;99.90
20370;DHT22;10344;47.592;9.600;2022-11-13T19:51:53;6.10;99.90
20370;DHT22;10344;47.592;9.600;2022-11-13T19:54:26;6.20;99.90
20370;DHT22;10344;47.592;9.600;2022-11-13T19:57:03;6.10;99.90